sensor_id;sensor_type;location;lat;lon;timestamp;temperature;humidity
25811;DHT22;13645;52.460;13.910;2022-12-13T00:01:13;-1.10;99.90
25811;DHT22;13645;52.460;13.910;2022-12-13T00:03:40;-1.10;99.90
25811;DHT22;13645;52.460;13.910;2022-12-13T00:06:08;-1.10;99.90
25811;DHT22;13645;52.460;13.910;2022-12-13T00:08:35;-1.10;99.90
25811;DHT22;13645;52.460;13.910;2022-12-13T00:11:05;-1.10;99.90
25811;DHT22;13645;52.460;13.910;2022-12-13T00:13:33;-1.10;99.90
25811;DHT22;13645;52.460;13.910;2022-12-13T00:16:02;-1.00;99.90
25811;DHT22;13645;52.460;13.910;2022-12-13T00:18:30;-1.00;99.90
25811;DHT22;13645;52.460;13.910;2022-12-13T00:20:58;-1.00;99.90
25811;DHT22;13645;52.460;13.910;2022-12-13T00:23:24;-1.00;99.90
25811;DHT22;13645;52.460;13.910;2022-12-13T00:25:51;-1.00;99.90
25811;DHT22;13645;52.460;13.910;2022-12-13T00:28:18;-1.00;99.90
25811;DHT22;13645;52.460;13.910;2022-12-13T00:30:44;-1.00;99.90
25811;DHT22;13645;52.460;13.910;2022-12-13T00:33:11;-1.00;99.90
25811;DHT22;13645;52.460;13.910;2022-12-13T00:35:41;-1.00;99.90
25811;DHT22;13645;52.460;13.910;2022-12-13T00:38:09;-1.00;99.90
25811;DHT22;13645;52.460;13.910;2022-12-13T00:40:36;-1.00;99.90
25811;DHT22;13645;52.460;13.910;2022-12-13T00:43:02;-1.00;99.90
25811;DHT22;13645;52.460;13.910;2022-12-13T00:45:29;-1.00;99.90
25811;DHT22;13645;52.460;13.910;2022-12-13T00:47:56;-1.00;99.90
25811;DHT22;13645;52.460;13.910;2022-12-13T00:50:23;-0.90;99.90
25811;DHT22;13645;52.460;13.910;2022-12-13T00:52:50;-1.00;99.90
25811;DHT22;13645;52.460;13.910;2022-12-13T00:55:16;-1.00;99.90
25811;DHT22;13645;52.460;13.910;2022-12-13T00:57:43;-1.00;99.90
25811;DHT22;13645;52.460;13.910;2022-12-13T01:00:10;-1.00;99.90
25811;DHT22;13645;52.460;13.910;2022-12-13T01:02:37;-1.00;99.90
25811;DHT22;13645;52.460;13.910;2022-12-13T01:05:04;-1.00;99.90
25811;DHT22;13645;52.460;13.910;2022-12-13T01:07:31;-0.90;99.90
25811;DHT22;13645;52.460;13.910;2022-12-13T01:09:57;-0.90;99.90
25811;DHT22;13645;52.460;13.910;2022-12-13T01:12:24;-0.90;99.90
25811;DHT22;13645;52.460;13.910;2022-12-13T01:14:51;-0.90;99.90
25811;DHT22;13645;52.460;13.910;2022-12-13T01:17:21;-0.90;99.90
25811;DHT22;13645;52.460;13.910;2022-12-13T01:19:48;-0.90;99.90
25811;DHT22;13645;52.460;13.910;2022-12-13T01:22:15;-1.00;99.90
25811;DHT22;13645;52.460;13.910;2022-12-13T01:24:42;-1.00;99.90
25811;DHT22;13645;52.460;13.910;2022-12-13T01:27:09;-1.00;99.90
25811;DHT22;13645;52.460;13.910;2022-12-13T01:29:36;-1.00;99.90
25811;DHT22;13645;52.460;13.910;2022-12-13T01:32:03;-0.90;99.90
25811;DHT22;13645;52.460;13.910;2022-12-13T01:34:30;-0.90;99.90
25811;DHT22;13645;52.460;13.910;2022-12-13T01:36:57;-0.90;99.90
25811;DHT22;13645;52.460;13.910;2022-12-13T01:39:25;-0.90;99.90
25811;DHT22;13645;52.460;13.910;2022-12-13T01:41:54;-1.00;99.90
25811;DHT22;13645;52.460;13.910;2022-12-13T01:50:07;-1.00;99.90
25811;DHT22;13645;52.460;13.910;2022-12-13T01:52:36;-1.00;99.90
25811;DHT22;13645;52.460;13.910;2022-12-13T01:55:06;-0.90;99.90
25811;DHT22;13645;52.460;13.910;2022-12-13T01:57:34;-1.00;99.90
25811;DHT22;13645;52.460;13.910;2022-12-13T02:00:08;-1.00;99.90
25811;DHT22;13645;52.460;13.910;2022-12-13T02:02:36;-1.00;99.90
25811;DHT22;13645;52.460;13.910;2022-12-13T02:07:38;-1.00;99.90
25811;DHT22;13645;52.460;13.910;2022-12-13T02:10:07;-1.00;99.90
25811;DHT22;13645;52.460;13.910;2022-12-13T02:12:36;-1.00;99.90
25811;DHT22;13645;52.460;13.910;2022-12-13T02:15:15;-0.90;99.90
25811;DHT22;13645;52.460;13.910;2022-12-13T02:20:34;-0.90;99.90
25811;DHT22;13645;52.460;13.910;2022-12-13T02:23:16;-0.90;99.90
25811;DHT22;13645;52.460;13.910;2022-12-13T02:25:55;-0.80;99.90
25811;DHT22;13645;52.460;13.910;2022-12-13T02:28:57;-0.90;99.90
25811;DHT22;13645;52.460;13.910;2022-12-13T02:34:32;-0.90;99.90
25811;DHT22;13645;52.460;13.910;2022-12-13T02:43:24;-1.00;99.90
25811;DHT22;13645;52.460;13.910;2022-12-13T02:45:28;-1.00;99.90
25811;DHT22;13645;52.460;13.910;2022-12-13T02:48:00;-1.00;99.90
25811;DHT22;13645;52.460;13.910;2022-12-13T02:50:29;-1.00;99.90
25811;DHT22;13645;52.460;13.910;2022-12-13T02:52:57;-1.00;99.90
25811;DHT22;13645;52.460;13.910;2022-12-13T02:55:25;-1.00;99.90
25811;DHT22;13645;52.460;13.910;2022-12-13T02:57:54;-1.00;99.90
25811;DHT22;13645;52.460;13.910;2022-12-13T03:00:23;-1.00;99.90
25811;DHT22;13645;52.460;13.910;2022-12-13T03:08:38;-1.00;99.90
25811;DHT22;13645;52.460;13.910;2022-12-13T03:11:10;-0.90;99.90
25811;DHT22;13645;52.460;13.910;2022-12-13T03:19:07;-1.10;99.90
25811;DHT22;13645;52.460;13.910;2022-12-13T03:21:43;-1.10;99.90
25811;DHT22;13645;52.460;13.910;2022-12-13T03:24:19;-1.10;99.90
25811;DHT22;13645;52.460;13.910;2022-12-13T03:26:48;-1.00;99.90
25811;DHT22;13645;52.460;13.910;2022-12-13T03:29:16;-1.10;99.90
25811;DHT22;13645;52.460;13.910;2022-12-13T03:31:51;-1.10;99.90
25811;DHT22;13645;52.460;13.910;2022-12-13T03:34:18;-1.00;99.90
25811;DHT22;13645;52.460;13.910;2022-12-13T03:36:48;-1.00;99.90
25811;DHT22;13645;52.460;13.910;2022-12-13T03:39:15;-1.00;99.90
25811;DHT22;13645;52.460;13.910;2022-12-13T03:41:41;-1.00;99.90
25811;DHT22;13645;52.460;13.910;2022-12-13T03:44:08;-1.00;99.90
25811;DHT22;13645;52.460;13.910;2022-12-13T03:46:35;-1.00;99.90
25811;DHT22;13645;52.460;13.910;2022-12-13T03:49:02;-1.00;99.90
25811;DHT22;13645;52.460;13.910;2022-12-13T03:51:28;-0.90;99.90
25811;DHT22;13645;52.460;13.910;2022-12-13T03:53:55;-0.90;99.90
25811;DHT22;13645;52.460;13.910;2022-12-13T03:56:22;-1.00;99.90
25811;DHT22;13645;52.460;13.910;2022-12-13T03:58:49;-0.90;99.90
25811;DHT22;13645;52.460;13.910;2022-12-13T04:01:16;-0.90;99.90
25811;DHT22;13645;52.460;13.910;2022-12-13T04:03:45;-0.90;99.90
25811;DHT22;13645;52.460;13.910;2022-12-13T04:06:13;-1.00;99.90
25811;DHT22;13645;52.460;13.910;2022-12-13T04:08:50;-1.00;99.90
25811;DHT22;13645;52.460;13.910;2022-12-13T04:11:18;-1.00;99.90
25811;DHT22;13645;52.460;13.910;2022-12-13T04:14:10;-1.00;99.90
25811;DHT22;13645;52.460;13.910;2022-12-13T04:16:37;-1.00;99.90
25811;DHT22;13645;52.460;13.910;2022-12-13T04:19:04;-1.00;99.90
25811;DHT22;13645;52.460;13.910;2022-12-13T04:21:31;-1.00;99.90
25811;DHT22;13645;52.460;13.910;2022-12-13T04:23:57;-0.90;99.90
25811;DHT22;13645;52.460;13.910;2022-12-13T04:26:27;-0.90;99.90
25811;DHT22;13645;52.460;13.910;2022-12-13T04:28:53;-0.90;99.90
25811;DHT22;13645;52.460;13.910;2022-12-13T04:31:20;-1.00;99.90
25811;DHT22;13645;52.460;13.910;2022-12-13T04:33:47;-0.90;99.90
25811;DHT22;13645;52.460;13.910;2022-12-13T04:36:14;-0.90;99.90
25811;DHT22;13645;52.460;13.910;2022-12-13T04:39:02;-0.90;99.90
25811;DHT22;13645;52.460;13.910;2022-12-13T04:41:48;-1.00;99.90
25811;DHT22;13645;52.460;13.910;2022-12-13T04:44:16;-1.00;99.90
25811;DHT22;13645;52.460;13.910;2022-12-13T04:46:55;-1.00;99.90
25811;DHT22;13645;52.460;13.910;2022-12-13T04:49:27;-0.90;99.90
25811;DHT22;13645;52.460;13.910;2022-12-13T04:51:54;-0.90;99.90
25811;DHT22;13645;52.460;13.910;2022-12-13T04:54:26;-0.90;99.90
25811;DHT22;13645;52.460;13.910;2022-12-13T04:57:03;-0.90;99.90
25811;DHT22;13645;52.460;13.910;2022-12-13T04:59:30;-1.00;99.90
25811;DHT22;13645;52.460;13.910;2022-12-13T05:01:57;-1.00;99.90
25811;DHT22;13645;52.460;13.910;2022-12-13T05:04:24;-1.00;99.90
25811;DHT22;13645;52.460;13.910;2022-12-13T05:06:58;-0.90;99.90
25811;DHT22;13645;52.460;13.910;2022-12-13T05:09:24;-1.00;99.90
25811;DHT22;13645;52.460;13.910;2022-12-13T05:11:51;-1.00;99.90
25811;DHT22;13645;52.460;13.910;2022-12-13T05:14:26;-1.00;99.90
25811;DHT22;13645;52.460;13.910;2022-12-13T05:16:53;-1.00;99.90
25811;DHT22;13645;52.460;13.910;2022-12-13T05:19:20;-1.00;99.90
25811;DHT22;13645;52.460;13.910;2022-12-13T05:21:56;-1.00;99.90
25811;DHT22;13645;52.460;13.910;2022-12-13T05:24:27;-1.00;99.90
25811;DHT22;13645;52.460;13.910;2022-12-13T05:26:53;-0.90;99.90
25811;DHT22;13645;52.460;13.910;2022-12-13T05:29:20;-0.80;99.90
25811;DHT22;13645;52.460;13.910;2022-12-13T05:31:47;-0.70;99.90
25811;DHT22;13645;52.460;13.910;2022-12-13T05:34:13;-0.80;99.90
25811;DHT22;13645;52.460;13.910;2022-12-13T05:36:40;-0.80;99.90
25811;DHT22;13645;52.460;13.910;2022-12-13T05:39:07;-0.80;99.90
25811;DHT22;13645;52.460;13.910;2022-12-13T05:41:55;-0.90;99.90
25811;DHT22;13645;52.460;13.910;2022-12-13T05:44:28;-0.90;99.90
25811;DHT22;13645;52.460;13.910;2022-12-13T05:46:55;-1.00;99.90
25811;DHT22;13645;52.460;13.910;2022-12-13T05:49:21;-1.00;99.90
25811;DHT22;13645;52.460;13.910;2022-12-13T05:51:48;-0.90;99.90
25811;DHT22;13645;52.460;13.910;2022-12-13T05:54:15;-0.90;99.90
25811;DHT22;13645;52.460;13.910;2022-12-13T05:56:42;-0.90;99.90
25811;DHT22;13645;52.460;13.910;2022-12-13T05:59:08;-0.90;99.90
25811;DHT22;13645;52.460;13.910;2022-12-13T06:01:35;-0.90;99.90
25811;DHT22;13645;52.460;13.910;2022-12-13T06:04:09;-0.80;99.90
25811;DHT22;13645;52.460;13.910;2022-12-13T06:06:37;-0.90;99.90
25811;DHT22;13645;52.460;13.910;2022-12-13T06:09:03;-0.80;99.90
25811;DHT22;13645;52.460;13.910;2022-12-13T06:11:30;-0.90;99.90
25811;DHT22;13645;52.460;13.910;2022-12-13T06:13:58;-0.90;99.90
25811;DHT22;13645;52.460;13.910;2022-12-13T06:16:27;-0.90;99.90
25811;DHT22;13645;52.460;13.910;2022-12-13T06:18:55;-0.90;99.90
25811;DHT22;13645;52.460;13.910;2022-12-13T06:21:31;-0.90;99.90
25811;DHT22;13645;52.460;13.910;2022-12-13T06:24:14;-0.90;99.90
25811;DHT22;13645;52.460;13.910;2022-12-13T06:26:41;-0.90;99.90
25811;DHT22;13645;52.460;13.910;2022-12-13T06:29:11;-0.90;99.90
25811;DHT22;13645;52.460;13.910;2022-12-13T06:31:55;-0.90;99.90
25811;DHT22;13645;52.460;13.910;2022-12-13T06:34:33;-1.00;99.90
25811;DHT22;13645;52.460;13.910;2022-12-13T06:37:02;-1.00;99.90
25811;DHT22;13645;52.460;13.910;2022-12-13T06:39:30;-1.00;99.90
25811;DHT22;13645;52.460;13.910;2022-12-13T06:41:59;-1.00;99.90
25811;DHT22;13645;52.460;13.910;2022-12-13T06:44:26;-1.00;99.90
25811;DHT22;13645;52.460;13.910;2022-12-13T06:46:53;-1.00;99.90
25811;DHT22;13645;52.460;13.910;2022-12-13T06:49:38;-1.00;99.90
25811;DHT22;13645;52.460;13.910;2022-12-13T06:52:10;-1.00;99.90
25811;DHT22;13645;52.460;13.910;2022-12-13T06:54:38;-1.10;99.90
25811;DHT22;13645;52.460;13.910;2022-12-13T06:57:05;-1.00;99.90
25811;DHT22;13645;52.460;13.910;2022-12-13T06:59:32;-1.00;99.90
25811;DHT22;13645;52.460;13.910;2022-12-13T07:01:59;-1.00;99.90
25811;DHT22;13645;52.460;13.910;2022-12-13T07:04:29;-1.00;99.90
25811;DHT22;13645;52.460;13.910;2022-12-13T07:06:57;-0.90;99.90
25811;DHT22;13645;52.460;13.910;2022-12-13T07:09:28;-0.90;99.90
25811;DHT22;13645;52.460;13.910;2022-12-13T07:11:55;-0.90;99.90
25811;DHT22;13645;52.460;13.910;2022-12-13T07:14:22;-0.80;99.90
25811;DHT22;13645;52.460;13.910;2022-12-13T07:16:49;-0.90;99.90
25811;DHT22;13645;52.460;13.910;2022-12-13T07:19:16;-0.80;99.90
25811;DHT22;13645;52.460;13.910;2022-12-13T07:21:50;-0.90;99.90
25811;DHT22;13645;52.460;13.910;2022-12-13T07:24:17;-0.90;99.90
25811;DHT22;13645;52.460;13.910;2022-12-13T07:26:44;-1.00;99.90
25811;DHT22;13645;52.460;13.910;2022-12-13T07:29:11;-1.00;99.90
25811;DHT22;13645;52.460;13.910;2022-12-13T07:31:38;-1.00;99.90
25811;DHT22;13645;52.460;13.910;2022-12-13T07:34:04;-1.00;99.90
25811;DHT22;13645;52.460;13.910;2022-12-13T07:36:31;-1.00;99.90
25811;DHT22;13645;52.460;13.910;2022-12-13T07:38:58;-1.00;99.90
25811;DHT22;13645;52.460;13.910;2022-12-13T07:41:25;-1.00;99.90
25811;DHT22;13645;52.460;13.910;2022-12-13T07:43:53;-1.00;99.90
25811;DHT22;13645;52.460;13.910;2022-12-13T07:46:22;-1.00;99.90
25811;DHT22;13645;52.460;13.910;2022-12-13T07:49:03;-0.90;99.90
25811;DHT22;13645;52.460;13.910;2022-12-13T07:51:34;-0.90;99.90
25811;DHT22;13645;52.460;13.910;2022-12-13T07:54:01;-0.90;99.90
25811;DHT22;13645;52.460;13.910;2022-12-13T07:56:33;-0.90;99.90
25811;DHT22;13645;52.460;13.910;2022-12-13T07:59:00;-0.90;99.90
25811;DHT22;13645;52.460;13.910;2022-12-13T08:01:27;-0.90;99.90
25811;DHT22;13645;52.460;13.910;2022-12-13T08:03:54;-0.90;99.90
25811;DHT22;13645;52.460;13.910;2022-12-13T08:06:21;-1.00;99.90
25811;DHT22;13645;52.460;13.910;2022-12-13T08:08:48;-1.00;99.90
25811;DHT22;13645;52.460;13.910;2022-12-13T08:11:16;-0.90;99.90
25811;DHT22;13645;52.460;13.910;2022-12-13T08:13:43;-0.80;99.90
25811;DHT22;13645;52.460;13.910;2022-12-13T08:16:11;-0.80;99.90
25811;DHT22;13645;52.460;13.910;2022-12-13T08:18:54;-0.80;99.90
25811;DHT22;13645;52.460;13.910;2022-12-13T08:21:37;-0.70;99.90
25811;DHT22;13645;52.460;13.910;2022-12-13T08:24:23;-0.70;99.90
25811;DHT22;13645;52.460;13.910;2022-12-13T08:26:49;-0.70;99.90
25811;DHT22;13645;52.460;13.910;2022-12-13T08:29:16;-0.70;99.90
25811;DHT22;13645;52.460;13.910;2022-12-13T08:32:03;-0.70;99.90
25811;DHT22;13645;52.460;13.910;2022-12-13T08:34:30;-0.70;99.90
25811;DHT22;13645;52.460;13.910;2022-12-13T08:36:57;-0.60;99.90
25811;DHT22;13645;52.460;13.910;2022-12-13T08:39:27;-0.60;99.90
25811;DHT22;13645;52.460;13.910;2022-12-13T08:41:54;-0.60;99.90
25811;DHT22;13645;52.460;13.910;2022-12-13T08:44:21;-0.60;99.90
25811;DHT22;13645;52.460;13.910;2022-12-13T08:46:48;-0.70;99.90
25811;DHT22;13645;52.460;13.910;2022-12-13T08:49:15;-0.60;99.90
25811;DHT22;13645;52.460;13.910;2022-12-13T08:51:41;-0.60;99.90
25811;DHT22;13645;52.460;13.910;2022-12-13T08:54:08;-0.50;99.90
25811;DHT22;13645;52.460;13.910;2022-12-13T08:56:37;-0.50;99.90
25811;DHT22;13645;52.460;13.910;2022-12-13T08:59:03;-0.50;99.90
25811;DHT22;13645;52.460;13.910;2022-12-13T09:01:31;-0.50;99.90
25811;DHT22;13645;52.460;13.910;2022-12-13T09:03:58;-0.50;99.90
25811;DHT22;13645;52.460;13.910;2022-12-13T09:06:25;-0.60;99.90
25811;DHT22;13645;52.460;13.910;2022-12-13T09:08:52;-0.50;99.90
25811;DHT22;13645;52.460;13.910;2022-12-13T09:11:20;-0.50;99.90
25811;DHT22;13645;52.460;13.910;2022-12-13T09:14:02;-0.40;99.90
25811;DHT22;13645;52.460;13.910;2022-12-13T09:16:29;-0.30;99.90
25811;DHT22;13645;52.460;13.910;2022-12-13T09:19:03;-0.40;99.90
25811;DHT22;13645;52.460;13.910;2022-12-13T09:21:50;-0.30;99.90
25811;DHT22;13645;52.460;13.910;2022-12-13T09:24:17;-0.30;99.90
25811;DHT22;13645;52.460;13.910;2022-12-13T09:26:50;-0.30;99.90
25811;DHT22;13645;52.460;13.910;2022-12-13T09:29:23;-0.30;99.90
25811;DHT22;13645;52.460;13.910;2022-12-13T09:31:50;-0.20;99.90
25811;DHT22;13645;52.460;13.910;2022-12-13T09:34:19;-0.20;99.90
25811;DHT22;13645;52.460;13.910;2022-12-13T09:36:46;-0.20;99.90
25811;DHT22;13645;52.460;13.910;2022-12-13T09:39:12;-0.30;99.90
25811;DHT22;13645;52.460;13.910;2022-12-13T09:41:43;-0.20;99.90
25811;DHT22;13645;52.460;13.910;2022-12-13T09:44:26;-0.20;99.90
25811;DHT22;13645;52.460;13.910;2022-12-13T09:47:02;-0.20;99.90
25811;DHT22;13645;52.460;13.910;2022-12-13T09:49:43;-0.20;99.90
25811;DHT22;13645;52.460;13.910;2022-12-13T09:52:21;-0.20;99.90
25811;DHT22;13645;52.460;13.910;2022-12-13T09:54:58;-0.20;99.90
25811;DHT22;13645;52.460;13.910;2022-12-13T09:57:33;-0.20;99.90
25811;DHT22;13645;52.460;13.910;2022-12-13T10:00:21;-0.20;99.90
25811;DHT22;13645;52.460;13.910;2022-12-13T10:02:51;-0.20;99.90
25811;DHT22;13645;52.460;13.910;2022-12-13T10:05:25;-0.20;99.90
25811;DHT22;13645;52.460;13.910;2022-12-13T10:08:12;-0.20;99.90
25811;DHT22;13645;52.460;13.910;2022-12-13T10:10:39;-0.10;99.90
25811;DHT22;13645;52.460;13.910;2022-12-13T10:16:02;-0.20;99.90
25811;DHT22;13645;52.460;13.910;2022-12-13T10:18:35;-0.20;99.90
25811;DHT22;13645;52.460;13.910;2022-12-13T10:21:06;-0.20;99.90
25811;DHT22;13645;52.460;13.910;2022-12-13T10:23:34;-0.20;99.90
25811;DHT22;13645;52.460;13.910;2022-12-13T10:26:21;-0.20;99.90
25811;DHT22;13645;52.460;13.910;2022-12-13T10:29:00;-0.30;99.90
25811;DHT22;13645;52.460;13.910;2022-12-13T10:31:28;-0.30;99.90
25811;DHT22;13645;52.460;13.910;2022-12-13T10:33:56;-0.30;99.90
25811;DHT22;13645;52.460;13.910;2022-12-13T10:38:57;-0.20;99.90
25811;DHT22;13645;52.460;13.910;2022-12-13T10:41:30;-0.20;99.90
25811;DHT22;13645;52.460;13.910;2022-12-13T10:44:27;-0.10;99.90
25811;DHT22;13645;52.460;13.910;2022-12-13T10:49:55;-0.20;99.90
25811;DHT22;13645;52.460;13.910;2022-12-13T10:52:28;-0.10;99.90
25811;DHT22;13645;52.460;13.910;2022-12-13T10:55:00;-0.20;99.10
25811;DHT22;13645;52.460;13.910;2022-12-13T10:57:28;-0.20;99.80
25811;DHT22;13645;52.460;13.910;2022-12-13T10:59:55;-0.20;98.10
25811;DHT22;13645;52.460;13.910;2022-12-13T11:02:34;-0.30;99.90
25811;DHT22;13645;52.460;13.910;2022-12-13T11:05:24;-0.30;99.90
25811;DHT22;13645;52.460;13.910;2022-12-13T11:07:52;-0.30;99.90
25811;DHT22;13645;52.460;13.910;2022-12-13T11:10:28;-0.30;99.90
25811;DHT22;13645;52.460;13.910;2022-12-13T11:13:03;-0.30;99.90
25811;DHT22;13645;52.460;13.910;2022-12-13T11:15:33;-0.30;99.90
25811;DHT22;13645;52.460;13.910;2022-12-13T11:18:04;-0.30;99.90
25811;DHT22;13645;52.460;13.910;2022-12-13T11:20:36;-0.30;99.90
25811;DHT22;13645;52.460;13.910;2022-12-13T11:23:19;-0.30;99.90
25811;DHT22;13645;52.460;13.910;2022-12-13T11:25:54;-0.30;99.90
25811;DHT22;13645;52.460;13.910;2022-12-13T11:31:40;-0.30;99.90
25811;DHT22;13645;52.460;13.910;2022-12-13T11:39:34;-0.20;99.90
25811;DHT22;13645;52.460;13.910;2022-12-13T11:45:19;-0.20;99.90
25811;DHT22;13645;52.460;13.910;2022-12-13T11:48:02;-0.10;99.90
25811;DHT22;13645;52.460;13.910;2022-12-13T11:50:35;-0.10;99.90
25811;DHT22;13645;52.460;13.910;2022-12-13T11:53:30;-0.20;99.90
25811;DHT22;13645;52.460;13.910;2022-12-13T11:56:23;-0.20;99.90
25811;DHT22;13645;52.460;13.910;2022-12-13T11:59:04;-0.30;99.90
25811;DHT22;13645;52.460;13.910;2022-12-13T12:01:54;-0.30;99.90
25811;DHT22;13645;52.460;13.910;2022-12-13T12:04:41;-0.30;99.90
25811;DHT22;13645;52.460;13.910;2022-12-13T12:07:12;-0.30;99.90
25811;DHT22;13645;52.460;13.910;2022-12-13T12:12:46;-0.20;99.90
25811;DHT22;13645;52.460;13.910;2022-12-13T12:15:27;-0.20;99.90
25811;DHT22;13645;52.460;13.910;2022-12-13T12:17:55;-0.20;99.90
25811;DHT22;13645;52.460;13.910;2022-12-13T12:20:54;-0.20;99.90
25811;DHT22;13645;52.460;13.910;2022-12-13T12:26:22;-0.20;99.90
25811;DHT22;13645;52.460;13.910;2022-12-13T12:29:14;-0.10;99.90
25811;DHT22;13645;52.460;13.910;2022-12-13T12:35:02;0.00;99.90
25811;DHT22;13645;52.460;13.910;2022-12-13T12:37:51;0.00;99.90
25811;DHT22;13645;52.460;13.910;2022-12-13T12:43:36;-0.10;99.90
25811;DHT22;13645;52.460;13.910;2022-12-13T12:48:46;-0.10;99.90
25811;DHT22;13645;52.460;13.910;2022-12-13T13:03:02;-0.10;99.90
25811;DHT22;13645;52.460;13.910;2022-12-13T13:06:01;-0.10;99.90
25811;DHT22;13645;52.460;13.910;2022-12-13T13:11:07;-0.10;99.90
25811;DHT22;13645;52.460;13.910;2022-12-13T13:21:43;-0.20;99.90
25811;DHT22;13645;52.460;13.910;2022-12-13T13:24:28;-0.20;99.90
25811;DHT22;13645;52.460;13.910;2022-12-13T13:27:24;-0.20;99.90
25811;DHT22;13645;52.460;13.910;2022-12-13T13:30:04;-0.20;99.90
25811;DHT22;13645;52.460;13.910;2022-12-13T13:32:34;-0.20;99.90
25811;DHT22;13645;52.460;13.910;2022-12-13T13:38:01;-0.30;99.90
25811;DHT22;13645;52.460;13.910;2022-12-13T13:40:35;-0.30;99.90
25811;DHT22;13645;52.460;13.910;2022-12-13T13:49:00;-0.30;99.90
25811;DHT22;13645;52.460;13.910;2022-12-13T13:55:21;-0.30;99.90
25811;DHT22;13645;52.460;13.910;2022-12-13T14:11:53;-0.30;99.90
25811;DHT22;13645;52.460;13.910;2022-12-13T14:28:31;-0.50;99.90
25811;DHT22;13645;52.460;13.910;2022-12-13T14:31:00;-0.50;99.90
25811;DHT22;13645;52.460;13.910;2022-12-13T14:33:27;-0.40;99.90
25811;DHT22;13645;52.460;13.910;2022-12-13T14:35:57;-0.50;99.90
25811;DHT22;13645;52.460;13.910;2022-12-13T14:38:29;-0.50;99.90
25811;DHT22;13645;52.460;13.910;2022-12-13T14:41:00;-0.50;99.90
25811;DHT22;13645;52.460;13.910;2022-12-13T14:43:29;-0.50;99.90
25811;DHT22;13645;52.460;13.910;2022-12-13T14:46:02;-0.60;99.90
25811;DHT22;13645;52.460;13.910;2022-12-13T14:48:51;-0.50;99.90
25811;DHT22;13645;52.460;13.910;2022-12-13T14:51:34;-0.60;99.90
25811;DHT22;13645;52.460;13.910;2022-12-13T14:54:02;-0.60;99.90
25811;DHT22;13645;52.460;13.910;2022-12-13T14:56:30;-0.70;99.90
25811;DHT22;13645;52.460;13.910;2022-12-13T14:59:01;-0.70;99.90
25811;DHT22;13645;52.460;13.910;2022-12-13T15:01:32;-0.70;99.90
25811;DHT22;13645;52.460;13.910;2022-12-13T15:07:22;-0.70;99.90
25811;DHT22;13645;52.460;13.910;2022-12-13T15:10:16;-0.80;99.90
25811;DHT22;13645;52.460;13.910;2022-12-13T15:12:44;-0.70;99.90
25811;DHT22;13645;52.460;13.910;2022-12-13T15:15:38;-0.70;99.90
25811;DHT22;13645;52.460;13.910;2022-12-13T15:18:22;-0.70;99.90
25811;DHT22;13645;52.460;13.910;2022-12-13T15:20:52;-0.80;99.90
25811;DHT22;13645;52.460;13.910;2022-12-13T15:23:30;-0.70;99.90
25811;DHT22;13645;52.460;13.910;2022-12-13T15:26:01;-0.70;99.90
25811;DHT22;13645;52.460;13.910;2022-12-13T15:28:32;-0.80;99.90
25811;DHT22;13645;52.460;13.910;2022-12-13T15:31:00;-0.80;99.90
25811;DHT22;13645;52.460;13.910;2022-12-13T15:33:30;-0.90;99.90
25811;DHT22;13645;52.460;13.910;2022-12-13T15:36:21;-0.90;99.90
25811;DHT22;13645;52.460;13.910;2022-12-13T15:41:35;-0.90;99.90
25811;DHT22;13645;52.460;13.910;2022-12-13T15:44:19;-0.90;99.90
25811;DHT22;13645;52.460;13.910;2022-12-13T15:46:50;-0.90;99.90
25811;DHT22;13645;52.460;13.910;2022-12-13T15:52:02;-0.90;99.90
25811;DHT22;13645;52.460;13.910;2022-12-13T15:54:30;-0.90;99.90
25811;DHT22;13645;52.460;13.910;2022-12-13T15:59:30;-1.00;99.90
25811;DHT22;13645;52.460;13.910;2022-12-13T16:01:57;-1.00;99.90
25811;DHT22;13645;52.460;13.910;2022-12-13T16:04:29;-1.00;99.90
25811;DHT22;13645;52.460;13.910;2022-12-13T16:06:59;-1.00;99.90
25811;DHT22;13645;52.460;13.910;2022-12-13T16:09:33;-1.00;99.90
25811;DHT22;13645;52.460;13.910;2022-12-13T16:12:00;-1.00;99.90
25811;DHT22;13645;52.460;13.910;2022-12-13T16:14:41;-1.00;99.90
25811;DHT22;13645;52.460;13.910;2022-12-13T16:17:25;-1.00;99.90
25811;DHT22;13645;52.460;13.910;2022-12-13T16:19:53;-1.00;99.90
25811;DHT22;13645;52.460;13.910;2022-12-13T16:22:21;-1.00;99.90
25811;DHT22;13645;52.460;13.910;2022-12-13T16:24:52;-1.00;99.90
25811;DHT22;13645;52.460;13.910;2022-12-13T16:27:21;-1.00;99.90
25811;DHT22;13645;52.460;13.910;2022-12-13T16:29:48;-1.10;99.90
25811;DHT22;13645;52.460;13.910;2022-12-13T16:32:15;-1.10;99.90
25811;DHT22;13645;52.460;13.910;2022-12-13T16:34:42;-1.10;99.90
25811;DHT22;13645;52.460;13.910;2022-12-13T16:37:10;-1.10;99.90
25811;DHT22;13645;52.460;13.910;2022-12-13T16:39:52;-1.10;99.90
25811;DHT22;13645;52.460;13.910;2022-12-13T16:42:19;-1.10;99.90
25811;DHT22;13645;52.460;13.910;2022-12-13T16:44:51;-1.10;99.90
25811;DHT22;13645;52.460;13.910;2022-12-13T16:47:38;-1.20;99.90
25811;DHT22;13645;52.460;13.910;2022-12-13T16:50:16;-1.20;99.90
25811;DHT22;13645;52.460;13.910;2022-12-13T16:52:44;-1.20;99.90
25811;DHT22;13645;52.460;13.910;2022-12-13T16:55:11;-1.20;99.90
25811;DHT22;13645;52.460;13.910;2022-12-13T16:57:38;-1.20;99.90
25811;DHT22;13645;52.460;13.910;2022-12-13T17:00:06;-1.20;99.90
25811;DHT22;13645;52.460;13.910;2022-12-13T17:02:35;-1.20;99.90
25811;DHT22;13645;52.460;13.910;2022-12-13T17:05:04;-1.20;99.90
25811;DHT22;13645;52.460;13.910;2022-12-13T17:07:40;-1.20;99.90
25811;DHT22;13645;52.460;13.910;2022-12-13T17:10:08;-1.20;99.90
25811;DHT22;13645;52.460;13.910;2022-12-13T17:12:35;-1.20;99.90
25811;DHT22;13645;52.460;13.910;2022-12-13T17:15:02;-1.20;99.90
25811;DHT22;13645;52.460;13.910;2022-12-13T17:17:29;-1.20;99.90
25811;DHT22;13645;52.460;13.910;2022-12-13T17:19:56;-1.20;99.90
25811;DHT22;13645;52.460;13.910;2022-12-13T17:22:23;-1.20;99.90
25811;DHT22;13645;52.460;13.910;2022-12-13T17:24:49;-1.20;99.90
25811;DHT22;13645;52.460;13.910;2022-12-13T17:27:16;-1.20;99.90
25811;DHT22;13645;52.460;13.910;2022-12-13T17:29:43;-1.20;99.90
25811;DHT22;13645;52.460;13.910;2022-12-13T17:32:12;-1.20;99.90
25811;DHT22;13645;52.460;13.910;2022-12-13T17:34:38;-1.20;99.90
25811;DHT22;13645;52.460;13.910;2022-12-13T17:37:05;-1.20;99.90
25811;DHT22;13645;52.460;13.910;2022-12-13T17:39:36;-1.20;99.90
25811;DHT22;13645;52.460;13.910;2022-12-13T17:42:03;-1.30;99.90
25811;DHT22;13645;52.460;13.910;2022-12-13T17:44:29;-1.30;99.90
25811;DHT22;13645;52.460;13.910;2022-12-13T17:46:56;-1.30;99.90
25811;DHT22;13645;52.460;13.910;2022-12-13T17:49:23;-1.30;99.90
25811;DHT22;13645;52.460;13.910;2022-12-13T17:51:51;-1.30;99.90
25811;DHT22;13645;52.460;13.910;2022-12-13T17:54:20;-1.30;99.90
25811;DHT22;13645;52.460;13.910;2022-12-13T17:56:47;-1.30;99.90
25811;DHT22;13645;52.460;13.910;2022-12-13T17:59:15;-1.40;99.90
25811;DHT22;13645;52.460;13.910;2022-12-13T18:01:43;-1.40;99.90